Christmas Valley, Oregon
Current Conditions -  °F | °C
As of 8:35 PM on Friday 19 Dec 2014 (Local Time) from KBDN Reporting Station
Broken Clouds Broken Clouds  
Wind Chill: 32°   Ceiling: 6000
Heat Index: 37°   Visibility: 10mi
Dew Point: 32°   Wind: 7mph
Humidity: 81%   Direction: 180°S
Pressure: 30"   Gusts: NA
Location:  43.24°N, 120.54°W
Report Text: KBDN 200435Z AUTO 18006KT 10SM BKN060 03/00 A3000 RMK AO2
Loading
Personal Weather Stations






























Interactive Weather Map New forecast layout! Learn more

10-Day Weather Forecast

Advertisements
Track Severe Weather on mobile